createdAt,value
2022-10-03T00:00:20.990Z,101043.81
2022-10-03T00:02:51.316Z,101046.56
2022-10-03T00:05:42.233Z,101054.69
2022-10-03T00:08:27.950Z,101041.81
2022-10-03T00:11:04.438Z,101050.47
2022-10-03T00:14:06.173Z,101052.81
2022-10-03T00:17:10.250Z,101043.91
2022-10-03T00:20:00.196Z,101052.66
2022-10-03T00:22:38.158Z,101061.84
2022-10-03T00:25:27.293Z,101058.31
2022-10-03T00:28:27.141Z,101066.56
2022-10-03T00:31:17.294Z,101067.81
2022-10-03T00:34:08.195Z,101070.75
2022-10-03T00:37:14.121Z,101065.03
2022-10-03T00:39:51.591Z,101066.28
2022-10-03T00:42:56.374Z,101069.19
2022-10-03T00:45:55.640Z,101067.16
2022-10-03T00:48:43.960Z,101069.03
2022-10-03T00:51:44.136Z,101074.19
2022-10-03T00:54:42.701Z,101087.19
2022-10-03T00:57:37.801Z,101086.13
2022-10-03T01:00:20.467Z,101091.63
2022-10-03T01:03:42.083Z,101089.06
2022-10-03T01:06:19.502Z,101097.66
2022-10-03T01:08:57.275Z,101091.44
2022-10-03T01:11:25.075Z,101099.88
2022-10-03T01:14:23.229Z,101106.53
2022-10-03T01:16:59.474Z,101098.38
2022-10-03T01:19:48.045Z,101111.75
2022-10-03T01:22:46.152Z,101102.72
2022-10-03T01:25:16.641Z,101098.19
2022-10-03T01:28:14.023Z,101091.53
2022-10-03T01:30:47.659Z,101091.44
2022-10-03T01:33:37.598Z,101106.19
2022-10-03T01:36:14.975Z,101116.03
2022-10-03T01:38:45.591Z,101108.44
2022-10-03T01:41:34.339Z,101107.94
2022-10-03T01:44:30.950Z,101111.56
2022-10-03T01:47:22.672Z,101110.16
2022-10-03T01:50:21.706Z,101109.28
2022-10-03T01:53:00.110Z,101109.28
2022-10-03T01:55:45.882Z,101116.81
2022-10-03T01:58:31.306Z,101117.63
2022-10-03T02:01:22.900Z,101123.38
2022-10-03T02:03:56.974Z,101123.66
2022-10-03T02:06:43.140Z,101125.16
2022-10-03T02:09:29.455Z,101123.22
2022-10-03T02:12:15.934Z,101133.31
2022-10-03T02:14:50.192Z,101130.66
2022-10-03T02:17:39.032Z,101133.03
2022-10-03T02:20:25.706Z,101128.50
2022-10-03T02:22:55.984Z,101133.69
2022-10-03T02:25:35.609Z,101138.63
2022-10-03T02:28:36.466Z,101140.22
2022-10-03T02:31:30.235Z,101142.44
2022-10-03T02:34:19.235Z,101131.25
2022-10-03T02:37:11.175Z,101135.81
2022-10-03T02:40:03.180Z,101134.75
2022-10-03T02:42:59.646Z,101131.28
2022-10-03T02:45:46.698Z,101138.31
2022-10-03T02:48:34.951Z,101136.78
2022-10-03T02:51:26.602Z,101142.66
2022-10-03T02:54:24.093Z,101144.25
2022-10-03T02:57:28.863Z,101132.88
2022-10-03T02:59:59.142Z,101138.38
2022-10-03T03:03:01.409Z,101141.50
2022-10-03T03:05:34.849Z,101135.56
2022-10-03T03:08:33.712Z,101142.75
2022-10-03T03:11:39.380Z,101144.69
2022-10-03T03:14:34.195Z,101148.16
2022-10-03T03:17:35.399Z,101143.72
2022-10-03T03:20:27.757Z,101157.19
2022-10-03T03:23:24.845Z,101155.78
2022-10-03T03:26:18.532Z,101156.25
2022-10-03T03:29:11.492Z,101146.91
2022-10-03T03:31:51.035Z,101150.75
2022-10-03T03:34:42.279Z,101147.38
2022-10-03T03:37:28.540Z,101151.06
2022-10-03T03:40:43.450Z,101154.53
2022-10-03T03:43:25.708Z,101155.78
2022-10-03T03:45:54.397Z,101152.41
2022-10-03T03:48:31.587Z,101149.91
2022-10-03T03:51:21.998Z,101149.25
2022-10-03T03:54:12.939Z,101143.66
2022-10-03T03:57:12.439Z,101154.19
2022-10-03T03:59:49.235Z,101160.50
2022-10-03T04:02:35.069Z,101162.91
2022-10-03T04:05:34.995Z,101180.75
2022-10-03T04:08:26.899Z,101172.63
2022-10-03T04:11:07.082Z,101177.22
2022-10-03T04:13:37.168Z,101175.28
2022-10-03T04:16:13.536Z,101182.22
2022-10-03T04:19:00.914Z,101196.78
2022-10-03T04:21:51.157Z,101187.44
2022-10-03T04:24:36.568Z,101184.56
2022-10-03T04:27:25.302Z,101192.66
2022-10-03T04:30:07.782Z,101197.53
2022-10-03T04:32:49.874Z,101189.53
2022-10-03T04:35:42.347Z,101183.59
2022-10-03T04:38:15.696Z,101179.75
2022-10-03T04:41:01.853Z,101175.56
2022-10-03T04:43:43.934Z,101173.97
2022-10-03T04:46:39.850Z,101170.69
2022-10-03T04:49:35.562Z,101166.94
2022-10-03T04:52:36.252Z,101166.16
2022-10-03T04:55:08.115Z,101163.91
2022-10-03T04:57:45.261Z,101174.88
2022-10-03T05:00:24.050Z,101170.97
2022-10-03T05:03:15.359Z,101163.06
2022-10-03T05:05:57.388Z,101163.66
2022-10-03T05:08:35.354Z,101173.97
2022-10-03T05:11:09.123Z,101169.03
2022-10-03T05:14:00.828Z,101165.91
2022-10-03T05:16:37.568Z,101176.22
2022-10-03T05:19:23.867Z,101176.78
2022-10-03T05:22:02.607Z,101181.91
2022-10-03T05:24:50.215Z,101181.66
2022-10-03T05:27:34.490Z,101180.22
2022-10-03T05:30:15.765Z,101183.78
2022-10-03T05:32:59.030Z,101193.41
2022-10-03T05:35:51.165Z,101203.56
2022-10-03T05:38:26.645Z,101199.44
2022-10-03T05:41:10.901Z,101216.94
2022-10-03T05:43:58.470Z,101209.25
2022-10-03T05:46:54.911Z,101207.66
2022-10-03T05:50:09.513Z,101202.69
2022-10-03T05:53:11.105Z,101198.72
2022-10-03T05:56:03.397Z,101199.63
2022-10-03T05:58:49.456Z,101198.94
2022-10-03T06:01:35.353Z,101202.97
2022-10-03T06:04:11.534Z,101202.91
2022-10-03T06:06:47.666Z,101205.63
2022-10-03T06:09:33.422Z,101216.81
2022-10-03T06:12:08.856Z,101215.72
2022-10-03T06:14:51.254Z,101214.16
2022-10-03T06:17:43.023Z,101215.56
2022-10-03T06:20:57.012Z,101213.31
2022-10-03T06:23:33.986Z,101220.56
2022-10-03T06:26:07.363Z,101213.72
2022-10-03T06:28:59.725Z,101220.25
2022-10-03T06:31:50.595Z,101221.97
2022-10-03T06:34:53.027Z,101225.28
2022-10-03T06:37:32.449Z,101219.63
2022-10-03T06:40:54.929Z,101220.63
2022-10-03T06:43:40.583Z,101220.34
2022-10-03T06:46:30.879Z,101222.34
2022-10-03T06:49:18.677Z,101222.41
2022-10-03T06:51:57.640Z,101220.09
2022-10-03T06:54:31.070Z,101231.63
2022-10-03T06:57:07.236Z,101239.38
2022-10-03T06:59:51.702Z,101236.84
2022-10-03T07:02:46.803Z,101246.69
2022-10-03T07:05:45.211Z,101243.03
2022-10-03T07:08:22.370Z,101243.25
2022-10-03T07:10:59.706Z,101240.19
2022-10-03T07:13:51.518Z,101242.75
2022-10-03T07:16:46.649Z,101251.66
2022-10-03T07:34:20.951Z,101270.94
2022-10-03T07:37:13.139Z,101270.66
2022-10-03T07:40:16.801Z,101271.56
2022-10-03T07:43:19.329Z,101265.13
2022-10-03T07:46:20.506Z,101272.69
2022-10-03T07:49:18.383Z,101268.38
2022-10-03T07:52:22.443Z,101271.25
2022-10-03T07:55:27.581Z,101275.47
2022-10-03T07:58:43.154Z,101280.66
2022-10-03T08:01:13.283Z,101271.38
2022-10-03T08:03:59.722Z,101271.09
2022-10-03T08:06:40.114Z,101263.13
2022-10-03T08:09:28.506Z,101269.59
2022-10-03T08:12:28.297Z,101264.25
2022-10-03T08:14:58.375Z,101270.84
2022-10-03T08:17:56.407Z,101267.91
2022-10-03T08:20:50.938Z,101267.44
2022-10-03T08:23:44.901Z,101275.06
2022-10-03T08:26:20.936Z,101265.22
2022-10-03T08:29:01.069Z,101273.81
2022-10-03T08:31:42.427Z,101263.59
2022-10-03T08:34:28.817Z,101267.63
2022-10-03T08:37:23.916Z,101276.00
2022-10-03T08:40:03.542Z,101290.03
2022-10-03T08:42:50.307Z,101286.66
2022-10-03T08:45:56.154Z,101286.59
2022-10-03T08:48:41.511Z,101282.41
2022-10-03T08:51:49.669Z,101272.06
2022-10-03T08:54:26.109Z,101271.63
2022-10-03T08:57:11.497Z,101271.78
2022-10-03T09:00:01.145Z,101270.84
2022-10-03T09:03:13.664Z,101275.03
2022-10-03T09:06:19.917Z,101276.69
2022-10-03T09:08:53.179Z,101271.53
2022-10-03T09:11:47.870Z,101262.91
2022-10-03T09:14:20.884Z,101263.25
2022-10-03T09:16:55.084Z,101265.91
2022-10-03T09:19:40.166Z,101273.97
2022-10-03T09:22:29.876Z,101280.13
2022-10-03T09:25:51.503Z,101283.94
2022-10-03T09:28:39.966Z,101280.53
2022-10-03T09:31:18.642Z,101277.13
2022-10-03T09:33:55.457Z,101269.69
2022-10-03T09:36:50.495Z,101275.38
2022-10-03T09:39:55.562Z,101269.22
2022-10-03T09:42:41.617Z,101269.81
2022-10-03T09:45:42.834Z,101273.97
2022-10-03T09:48:25.466Z,101269.19
2022-10-03T09:51:13.333Z,101265.00
2022-10-03T09:53:45.948Z,101268.56
2022-10-03T09:56:13.127Z,101264.28
2022-10-03T09:59:08.091Z,101264.81
2022-10-03T10:02:16.882Z,101260.94
2022-10-03T10:05:15.982Z,101254.16
2022-10-03T10:08:02.629Z,101248.94
2022-10-03T10:10:51.308Z,101259.16
2022-10-03T10:14:06.187Z,101254.41
2022-10-03T10:16:54.407Z,101243.91
2022-10-03T10:19:43.729Z,101239.78
2022-10-03T10:22:40.827Z,101244.06
2022-10-03T10:25:08.117Z,101249.28
2022-10-03T10:27:35.537Z,101247.34
2022-10-03T10:30:40.119Z,101233.63
2022-10-03T10:33:45.532Z,101238.81
2022-10-03T10:36:27.814Z,101235.03
2022-10-03T10:39:04.009Z,101235.53
2022-10-03T10:42:01.772Z,101243.22
2022-10-03T10:44:56.865Z,101244.88
2022-10-03T10:48:16.880Z,101239.97
2022-10-03T10:51:10.247Z,101240.91
2022-10-03T10:54:15.043Z,101235.72
2022-10-03T10:57:16.217Z,101225.31
2022-10-03T11:00:23.406Z,101225.22
2022-10-03T11:03:22.592Z,101219.16
2022-10-03T11:06:17.195Z,101217.94
2022-10-03T11:09:25.726Z,101211.69
2022-10-03T11:12:31.004Z,101212.19
2022-10-03T11:15:41.049Z,101217.56
2022-10-03T11:18:26.620Z,101207.19
2022-10-03T11:21:08.782Z,101199.16
2022-10-03T11:24:14.881Z,101202.03
2022-10-03T11:26:48.330Z,101206.19
2022-10-03T11:29:54.237Z,101206.75
2022-10-03T11:32:57.548Z,101206.91
2022-10-03T11:35:43.352Z,101192.38
2022-10-03T11:38:49.481Z,101194.50
2022-10-03T11:41:54.007Z,101204.16
2022-10-03T11:44:35.044Z,101202.78
2022-10-03T11:47:36.029Z,101195.97
2022-10-03T11:50:29.191Z,101187.88
2022-10-03T11:52:59.567Z,101190.41
2022-10-03T11:55:41.231Z,101185.34
2022-10-03T11:58:32.284Z,101186.16
2022-10-03T12:01:07.760Z,101192.75
2022-10-03T12:03:51.893Z,101188.53
2022-10-03T12:07:04.007Z,101185.59
2022-10-03T12:09:38.319Z,101181.56
2022-10-03T12:12:33.455Z,101178.25
2022-10-03T12:15:19.765Z,101174.72
2022-10-03T12:18:06.755Z,101181.09
2022-10-03T12:20:39.839Z,101177.56
2022-10-03T12:23:44.246Z,101175.00
2022-10-03T12:26:19.541Z,101174.41
2022-10-03T12:28:54.688Z,101162.81
2022-10-03T12:31:36.114Z,101168.53
2022-10-03T12:34:25.283Z,101173.31
2022-10-03T12:37:21.803Z,101166.19
2022-10-03T12:40:05.995Z,101160.47
2022-10-03T12:43:04.509Z,101158.44
2022-10-03T12:46:02.898Z,101149.28
2022-10-03T12:48:37.639Z,101142.66
2022-10-03T12:51:22.593Z,101151.97
2022-10-03T12:53:52.591Z,101149.28
2022-10-03T12:56:42.390Z,101143.84
2022-10-03T12:59:25.767Z,101145.00
2022-10-03T13:02:20.662Z,101151.19
2022-10-03T13:05:15.981Z,101155.03
2022-10-03T13:07:57.994Z,101156.56
2022-10-03T13:10:37.366Z,101139.81
2022-10-03T13:13:19.245Z,101144.13
2022-10-03T13:15:53.961Z,101148.06
2022-10-03T13:18:33.340Z,101142.81
2022-10-03T13:21:33.463Z,101147.16
2022-10-03T13:24:02.890Z,101141.22
2022-10-03T13:26:48.416Z,101132.81
2022-10-03T13:29:25.367Z,101132.06
2022-10-03T13:32:12.147Z,101133.66
2022-10-03T13:34:52.158Z,101140.25
2022-10-03T13:37:31.552Z,101138.91
2022-10-03T13:40:12.606Z,101137.00
2022-10-03T13:42:52.288Z,101136.78
2022-10-03T13:45:26.352Z,101133.91
2022-10-03T13:48:07.423Z,101140.97
2022-10-03T13:50:52.311Z,101136.34
2022-10-03T13:53:51.214Z,101137.00
2022-10-03T13:56:35.447Z,101136.34
2022-10-03T13:59:07.562Z,101139.19
2022-10-03T14:01:48.967Z,101138.84
2022-10-03T14:04:29.136Z,101138.28
2022-10-03T14:07:25.065Z,101129.72
2022-10-03T14:10:19.788Z,101129.66
2022-10-03T14:13:06.080Z,101128.41
2022-10-03T14:15:56.061Z,101135.75
2022-10-03T14:18:50.019Z,101132.25
2022-10-03T14:21:36.952Z,101142.66
2022-10-03T14:24:58.057Z,101139.53
2022-10-03T14:28:00.247Z,101139.34
2022-10-03T14:31:06.038Z,101143.09
2022-10-03T14:34:12.059Z,101136.03
2022-10-03T14:37:15.879Z,101139.28
2022-10-03T14:40:08.562Z,101134.19
2022-10-03T14:42:48.255Z,101136.09
2022-10-03T14:45:26.479Z,101134.09
2022-10-03T14:47:59.566Z,101137.00
2022-10-03T14:50:31.376Z,101136.34
2022-10-03T14:53:29.857Z,101129.31
2022-10-03T14:56:09.880Z,101135.72
2022-10-03T14:58:52.456Z,101137.31
2022-10-03T15:01:24.879Z,101134.94
2022-10-03T15:04:10.150Z,101132.59
2022-10-03T15:06:46.446Z,101139.03
2022-10-03T15:09:21.369Z,101128.25
2022-10-03T15:11:54.484Z,101132.69
2022-10-03T15:14:24.359Z,101122.78
2022-10-03T15:16:54.877Z,101123.59
2022-10-03T15:19:32.871Z,101122.81
2022-10-03T15:22:27.080Z,101124.50
2022-10-03T15:24:59.048Z,101132.09
2022-10-03T15:27:26.852Z,101124.94
2022-10-03T15:29:58.036Z,101123.75
2022-10-03T15:32:42.230Z,101132.13
2022-10-03T15:35:20.476Z,101125.03
2022-10-03T15:37:48.832Z,101132.94
2022-10-03T15:40:25.378Z,101127.41
2022-10-03T15:43:22.834Z,101125.03
2022-10-03T15:45:50.958Z,101132.16
2022-10-03T15:48:21.839Z,101135.31
2022-10-03T15:51:01.616Z,101130.97
2022-10-03T15:53:37.186Z,101142.06
2022-10-03T15:56:07.770Z,101139.69
2022-10-03T15:58:39.129Z,101135.78
2022-10-03T16:01:29.050Z,101137.38
2022-10-03T16:04:01.681Z,101131.78
2022-10-03T16:06:41.091Z,101133.00
2022-10-03T16:09:25.619Z,101133.41
2022-10-03T16:12:43.628Z,101132.19
2022-10-03T16:15:20.857Z,101140.09
2022-10-03T16:17:54.612Z,101148.00
2022-10-03T16:20:41.714Z,101149.16
2022-10-03T16:23:22.500Z,101142.84
2022-10-03T16:25:57.432Z,101143.63
2022-10-03T16:29:06.874Z,101147.97
2022-10-03T16:31:43.591Z,101159.81
2022-10-03T16:34:16.549Z,101155.44
2022-10-03T16:36:49.313Z,101145.91
2022-10-03T16:39:23.822Z,101153.00
2022-10-03T16:41:55.753Z,101150.97
2022-10-03T16:44:39.847Z,101156.47
2022-10-03T16:47:09.313Z,101150.47
2022-10-03T16:50:02.036Z,101158.34
2022-10-03T16:52:36.242Z,101157.91
2022-10-03T16:55:08.607Z,101155.09
2022-10-03T16:57:46.218Z,101160.63
2022-10-03T17:00:41.115Z,101161.81
2022-10-03T17:03:22.674Z,101164.16
2022-10-03T17:05:53.942Z,101165.22
2022-10-03T17:08:41.359Z,101159.59
2022-10-03T17:11:19.576Z,101169.41
2022-10-03T17:13:52.447Z,101169.78
2022-10-03T17:16:37.469Z,101170.53
2022-10-03T17:19:20.524Z,101177.34
2022-10-03T17:21:55.694Z,101178.88
2022-10-03T17:24:42.398Z,101180.50
2022-10-03T17:27:24.303Z,101179.69
2022-10-03T17:30:01.960Z,101174.94
2022-10-03T17:32:39.970Z,101180.81
2022-10-03T17:35:11.807Z,101174.03
2022-10-03T17:37:56.052Z,101189.38
2022-10-03T17:40:35.663Z,101186.91
2022-10-03T17:43:10.585Z,101186.53
2022-10-03T17:46:05.531Z,101191.56
2022-10-03T17:48:43.409Z,101196.25
2022-10-03T17:51:16.429Z,101199.75
2022-10-03T17:53:54.258Z,101207.66
2022-10-03T17:56:27.456Z,101207.66
2022-10-03T17:59:14.531Z,101210.09
2022-10-03T18:01:45.391Z,101213.69
2022-10-03T18:04:19.636Z,101216.09
2022-10-03T18:06:50.404Z,101213.34
2022-10-03T18:09:17.633Z,101207.06
2022-10-03T18:11:49.775Z,101215.63
2022-10-03T18:14:47.739Z,101209.63
2022-10-03T18:17:52.525Z,101219.56
2022-10-03T18:20:29.705Z,101220.34
2022-10-03T18:23:01.176Z,101227.50
2022-10-03T18:26:20.761Z,101232.84
2022-10-03T18:29:23.585Z,101233.44
2022-10-03T18:31:58.350Z,101237.31
2022-10-03T18:34:34.451Z,101241.19
2022-10-03T18:37:28.106Z,101240.78
2022-10-03T18:39:58.479Z,101249.81
2022-10-03T18:42:28.332Z,101244.28
2022-10-03T18:45:00.962Z,101251.84
2022-10-03T18:47:37.561Z,101250.97
2022-10-03T18:50:20.421Z,101252.56
2022-10-03T18:52:55.579Z,101251.78
2022-10-03T18:55:42.574Z,101259.94
2022-10-03T18:58:25.335Z,101260.66
2022-10-03T19:01:05.057Z,101257.94
2022-10-03T19:03:39.742Z,101263.88
2022-10-03T19:06:19.371Z,101253.25
2022-10-03T19:09:26.641Z,101261.13
2022-10-03T19:12:21.203Z,101262.19
2022-10-03T19:15:11.176Z,101259.72
2022-10-03T19:17:38.441Z,101262.81
2022-10-03T19:20:12.117Z,101271.03
2022-10-03T19:22:43.217Z,101269.06
2022-10-03T19:25:21.352Z,101272.06
2022-10-03T19:27:55.289Z,101272.44
2022-10-03T19:30:25.849Z,101272.88
2022-10-03T19:33:17.345Z,101275.53
2022-10-03T19:35:52.705Z,101272.28
2022-10-03T19:38:27.751Z,101287.78
2022-10-03T19:41:04.779Z,101274.47
2022-10-03T19:43:41.059Z,101280.56
2022-10-03T19:46:29.912Z,101281.06
2022-10-03T19:49:20.631Z,101292.81
2022-10-03T19:51:49.268Z,101301.59
2022-10-03T19:54:33.939Z,101303.38
2022-10-03T19:57:05.493Z,101309.94
2022-10-03T19:59:54.877Z,101320.03
2022-10-03T20:02:24.812Z,101326.25
2022-10-03T20:05:19.253Z,101325.59
2022-10-03T20:08:00.778Z,101325.72
2022-10-03T20:11:13.115Z,101334.38
2022-10-03T20:13:47.936Z,101335.38
2022-10-03T20:16:21.444Z,101343.00
2022-10-03T20:18:52.645Z,101340.63
2022-10-03T20:21:25.141Z,101341.22
2022-10-03T20:23:56.875Z,101352.53
2022-10-03T20:26:24.135Z,101349.78
2022-10-03T20:29:22.985Z,101355.19
2022-10-03T20:31:51.893Z,101354.44
2022-10-03T20:34:24.405Z,101356.75
2022-10-03T20:37:16.809Z,101360.75
2022-10-03T20:39:46.054Z,101366.63
2022-10-03T20:42:25.204Z,101372.94
2022-10-03T20:45:03.415Z,101369.59
2022-10-03T20:48:02.378Z,101374.25
2022-10-03T20:50:46.326Z,101379.25
2022-10-03T20:53:23.781Z,101382.53
2022-10-03T20:55:57.446Z,101377.53
2022-10-03T20:58:43.031Z,101376.28
2022-10-03T21:01:15.648Z,101374.19
2022-10-03T21:04:10.639Z,101375.25
2022-10-03T21:07:00.483Z,101372.94
2022-10-03T21:09:50.557Z,101375.78
2022-10-03T21:12:25.210Z,101378.09
2022-10-03T21:15:00.563Z,101369.88
2022-10-03T21:17:29.130Z,101375.41
2022-10-03T21:20:10.316Z,101380.41
2022-10-03T21:22:38.510Z,101383.56
2022-10-03T21:25:19.487Z,101384.78
2022-10-03T21:27:54.541Z,101378.94
2022-10-03T21:30:45.360Z,101384.31
2022-10-03T21:33:22.363Z,101389.56
2022-10-03T21:35:51.290Z,101382.81
2022-10-03T21:38:31.793Z,101384.78
2022-10-03T21:41:20.619Z,101390.81
2022-10-03T21:44:16.815Z,101396.16
2022-10-03T21:47:13.442Z,101395.00
2022-10-03T21:49:49.806Z,101395.56
2022-10-03T21:52:40.866Z,101397.44
2022-10-03T21:55:39.221Z,101395.88
2022-10-03T21:58:57.491Z,101398.50
2022-10-03T22:01:46.323Z,101401.16
2022-10-03T22:04:36.077Z,101396.34
2022-10-03T22:07:25.875Z,101400.56
2022-10-03T22:09:56.298Z,101400.41
2022-10-03T22:12:28.449Z,101403.31
2022-10-03T22:15:05.287Z,101398.31
2022-10-03T22:17:44.984Z,101386.06
2022-10-03T22:20:21.747Z,101399.63
2022-10-03T22:23:06.979Z,101391.91
2022-10-03T22:25:46.057Z,101397.59
2022-10-03T22:28:41.971Z,101391.44
2022-10-03T22:31:38.208Z,101403.38
2022-10-03T22:34:40.375Z,101399.91
2022-10-03T22:37:07.925Z,101398.28
2022-10-03T22:39:37.044Z,101391.63
2022-10-03T22:42:05.083Z,101395.22
2022-10-03T22:44:38.252Z,101396.53
2022-10-03T22:47:19.491Z,101400.16
2022-10-03T22:49:49.569Z,101401.16
2022-10-03T22:52:24.218Z,101385.66
2022-10-03T22:54:52.543Z,101391.91
2022-10-03T22:57:23.088Z,101389.06
2022-10-03T22:59:55.589Z,101383.09
2022-10-03T23:02:31.810Z,101386.66
2022-10-03T23:05:48.391Z,101385.81
2022-10-03T23:08:18.544Z,101391.97
2022-10-03T23:10:55.228Z,101396.72
2022-10-03T23:13:39.299Z,101389.97
2022-10-03T23:16:36.582Z,101403.03
2022-10-03T23:19:26.750Z,101394.16
2022-10-03T23:21:56.899Z,101396.75
2022-10-03T23:24:29.961Z,101395.06
2022-10-03T23:27:29.368Z,101399.00
2022-10-03T23:30:17.823Z,101392.41
2022-10-03T23:32:47.922Z,101406.09
2022-10-03T23:35:30.483Z,101407.97
2022-10-03T23:37:59.480Z,101407.53
2022-10-03T23:40:39.932Z,101403.16
2022-10-03T23:43:35.499Z,101397.22
2022-10-03T23:46:08.857Z,101400.41
2022-10-03T23:48:49.532Z,101396.66
2022-10-03T23:51:22.179Z,101397.38
2022-10-03T23:53:53.088Z,101394.81
2022-10-03T23:56:23.460Z,101402.19
2022-10-03T23:59:03.751Z,101397.22
